Historyczne dane pomiarowe

Dodano dane terminowe – wersja testowa.

Dane z okresu 1951-2019

Wersja bazy: 1.34 [2019-03-16, lista zmian], aktualizacja planowana na 2019-04-15

Dane meteo z obszaru Polski uzyskane na podstawie danych udostępnionych przez Instytut Meteorologii i Gospodarki Wodnej – Państwowy Instytut Badawczy.

 

Wybierz Datę:    

       

TemperaturaWilgotnośćWiatrCiśnienieOpadyŚniegCzas trwania zjawisk
 Stacja t tx tn tng RH VA  wxwx mslp ppp RRR   cm mm wxwxwxwxwxwxwx
1987-08-14 15.8 22.5 12.0- 72.8- 4.7----- 2.1------------
1987-08-13 13.0 17.5 7.8- 75.0- 5.3----- 0.0------------
1987-08-12 14.1 18.5 9.4- 74.3- 3.0----- 0.0------------
1987-08-11 13.1 16.5 12.4- 89.0- 7.0----- 3.0------------
1987-08-10 16.4 20.0 13.6- 79.5- 7.0 3.3---- 13.4------------
1987-08-09 16.9 24.3 11.2- 69.0- 2.3 0.3---- 0.0------------
1987-08-08 14.6 20.4 12.3- 78.0- 3.3 2.0---- 0.0------------
1987-08-07 12.7 18.7 7.9- 75.0- 3.7 3.3---- 0.6------------
1987-08-06 12.5 16.1 10.4- 81.0- 4.0 2.3---- 2.0------------
1987-08-05 13.0 18.3 9.2- 81.8- 5.7 2.0---- 0.0------------
1987-08-04 15.8 19.6 11.4- 87.0- 4.3 2.3---- 2.1------------
1987-08-03 15.0 19.5 12.0- 82.0- 2.3 2.3---- 0.0------------
1987-08-02 16.0 19.4 14.0- 76.0- 5.7 2.0---- 6.9------------
1987-08-01 16.2 22.5 10.0- 78.5- 5.0 1.7---- 4.5------------
1987-07-31 16.6 22.0 14.5- 92.5- 8.0 2.0---- 2.9------------
1987-07-30 18.5 24.7 13.1- 66.3- 3.7 1.3---- 0.0------------
1987-07-29 14.4 19.0 10.3- 68.0- 4.7 1.3---- 0.0------------
1987-07-28 14.5 17.1 12.4- 86.3- 6.7 2.0---- 4.2------------
1987-07-27 13.2 18.2 9.7- 62.0- 4.0 5.3---- 4.2------------
1987-07-26 14.5 19.0 12.2- 90.0- 7.3 3.0---- 12.9------------
1987-07-25 21.2 25.4 17.4- 73.5- 4.3 2.0---- 1.0------------
1987-07-24 22.2 28.3 17.7- 68.0- 5.3 2.7---- 2.6------------
1987-07-23 22.9 28.9 15.8- 56.3- 1.3 1.0---- 1.2------------
1987-07-22 22.1 26.4 18.1- 73.0- 3.0 3.0---- 0.0------------
1987-07-21 20.6 26.6 15.0- 74.5- 3.3 2.0---- 0.0------------
1987-07-20 22.0 26.1 18.9- 75.0- 0.7 3.0---- 0.0------------
1987-07-19 23.4 31.4 18.9- 78.8- 3.0 3.3---- 0.2------------
1987-07-18 23.1 30.3 17.4- 76.8- 1.3 2.3---- 0.4------------
1987-07-17 21.2 29.6 15.5- 75.0- 2.3 4.3---- 0.4------------
1987-07-16 19.7 27.5 11.0- 62.8- 2.0 2.0---- 0.0------------
1987-07-15 17.8 23.5 8.1- 57.0- 2.0 2.3---- 0.0------------
1987-07-14 17.3 21.7 11.8- 56.5- 1.0 3.3---- 0.0------------
1987-07-13 19.3 24.4 15.8- 60.3- 4.0 3.3---- 0.0------------
1987-07-12 21.4 29.8 14.9- 59.5- 4.7 5.7---- 2.6------------
1987-07-11 16.3 23.4 8.9- 61.8- 1.0 1.7---- 0.0------------
1987-07-10 15.7 19.5 12.0- 61.5- 1.7 3.3---- 0.0------------
1987-07-09 19.3 25.8 13.4- 85.8- 7.3 2.0---- 14.9------------
1987-07-08 21.6 29.5 12.0- 47.3- 0.0 1.0---- 0.0------------
1987-07-07 19.3 25.7 10.0- 51.8- 0.0 0.7---- 0.0------------
1987-07-06 18.2 23.0 11.1- 49.8- 0.3 2.3---- 0.0------------
1987-07-05 17.1 21.8 14.2- 71.0- 3.0 3.7---- 0.0------------
1987-07-04 18.7 23.0 16.0- 65.5- 4.3 1.3---- 2.3------------
1987-07-03 20.0 22.4 17.6- 67.8- 7.7 2.3---- 0.3------------
1987-07-02 22.1 28.4 20.5- 67.8- 7.3 4.0---- 0.0------------
1987-07-01 25.3 31.5 18.5- 67.3- 0.3 1.3---- 0.0------------
1987-06-30 23.7 30.0 16.5- 68.8- 0.3 0.3---- 0.0------------
1987-06-29 21.4 26.1 16.6- 69.0- 4.3 0.7---- 0.0------------
1987-06-28 20.0 27.0 13.2- 63.0- 4.3 2.7---- 0.0------------
1987-06-27 20.1 24.3 14.1- 69.5- 5.3 2.3---- 0.0------------
1987-06-26 17.5 24.4 7.7- 61.3- 1.0 3.0---- 0.0------------
1987-06-25 15.4 19.6 13.4- 72.0- 3.3 5.0---- 0.0------------
1987-06-24 16.7 21.5 13.6- 73.0- 2.3 2.0---- 0.0------------
1987-06-23 17.3 22.0 12.4- 74.3- 4.7 2.7---- 0.7------------
1987-06-22 18.1 24.1 13.0- 77.5- 6.0 2.0---- 2.2------------
1987-06-21 18.1 24.4 10.4- 59.0- 2.7 1.7---- 0.0------------
1987-06-20 15.8 23.0 6.7- 61.5- 1.0 1.7---- 0.0------------
1987-06-19 13.1 18.6 8.8- 66.3- 2.3 1.0---- 0.0------------
1987-06-18 11.1 18.1 4.0- 80.8- 4.0 1.7---- 3.0------------
1987-06-17 12.6 16.8 9.3- 66.0- 3.7 2.0---- 0.0------------
1987-06-16 17.0 24.5 13.0- 79.5- 6.7 5.7---- 1.9------------
447.5 ms

 

Źródłem pochodzenia danych jest Instytut Meteorologii i Gospodarki Wodnej – Państwowy Instytut Badawczy. Dane Instytutu Meteorologii i Gospodarki Wodnej – Państwowego Instytutu Badawczego zostały przetworzone.

Dane źródłowe można odnaleźć na stronie https://dane.imgw.pl